Time;durP1;ratioP1;P1;durP2;ratioP2;P2;SDS_P1;SDS_P2;PMS_P1;PMS_P2;Temp;Humidity;BMP_temperature;BMP_pressure;BME280_temperature;BME280_humidity;BME280_pressure;Samples;Min_cycle;Max_cycle;Signal;HPM_P1;HPM_P2
2021/11/22 00:02:06;;;;;;;3.40;0.95;;;5.40;99.90;;;;;;5093911;28;20176;-68
2021/11/22 00:04:32;;;;;;;5.57;0.88;;;5.30;99.90;;;;;;5093758;28;20021;-70
2021/11/22 00:06:58;;;;;;;8.70;1.50;;;5.30;99.90;;;;;;5095101;28;20020;-64
2021/11/22 00:09:23;;;;;;;5.63;0.70;;;5.30;99.90;;;;;;5095590;28;20020;-67
2021/11/22 00:11:49;;;;;;;5.13;1.05;;;5.30;99.90;;;;;;5095111;28;20070;-66
2021/11/22 00:14:16;;;;;;;5.57;1.40;;;5.40;99.90;;;;;;5076660;28;20029;-67
2021/11/22 00:16:42;;;;;;;4.40;1.00;;;5.30;99.90;;;;;;5093996;28;20391;-67
2021/11/22 00:19:07;;;;;;;4.20;0.82;;;5.30;99.90;;;;;;5094813;28;20024;-69
2021/11/22 00:21:33;;;;;;;6.03;0.85;;;5.40;99.90;;;;;;5076633;28;20078;-68
2021/11/22 00:23:59;;;;;;;4.15;1.55;;;5.30;99.90;;;;;;5095209;28;20435;-68
2021/11/22 00:26:24;;;;;;;6.13;1.30;;;5.30;99.90;;;;;;5093528;28;20101;-69
2021/11/22 00:28:50;;;;;;;6.47;1.23;;;5.30;99.90;;;;;;5094707;28;20035;-66
2021/11/22 00:31:15;;;;;;;7.25;1.10;;;5.30;99.90;;;;;;5076361;28;20097;-66
2021/11/22 00:33:43;;;;;;;6.30;1.02;;;5.30;99.90;;;;;;5093092;28;20059;-67
2021/11/22 00:36:09;;;;;;;1.52;0.70;;;5.30;99.90;;;;;;5093337;28;20028;-68
2021/11/22 00:38:35;;;;;;;5.32;0.73;;;5.20;99.90;;;;;;5093179;28;20020;-68
2021/11/22 00:41:02;;;;;;;3.30;1.05;;;5.20;99.90;;;;;;5093605;28;20494;-66
2021/11/22 00:43:28;;;;;;;5.57;0.77;;;5.20;99.90;;;;;;5076089;28;20035;-69
2021/11/22 00:45:54;;;;;;;7.10;1.27;;;5.10;99.90;;;;;;5092988;28;20081;-69
2021/11/22 00:48:21;;;;;;;5.68;1.15;;;5.10;99.90;;;;;;5093247;28;20028;-63
2021/11/22 00:50:52;;;;;;;6.80;1.00;;;5.20;99.90;;;;;;5076154;28;20020;-63
2021/11/22 00:53:17;;;;;;;7.00;1.13;;;5.10;99.90;;;;;;5093448;28;20478;-71
2021/11/22 00:55:43;;;;;;;5.75;1.05;;;5.20;99.90;;;;;;5092791;28;20039;-68
2021/11/22 00:58:09;;;;;;;4.53;1.58;;;5.10;99.90;;;;;;5092930;28;20059;-69
2021/11/22 01:00:36;;;;;;;4.93;2.33;;;5.10;99.90;;;;;;5075798;28;20024;-69
2021/11/22 01:03:02;;;;;;;1.58;0.60;;;5.10;99.90;;;;;;5076387;28;20478;-69
2021/11/22 01:05:28;;;;;;;5.75;0.95;;;5.10;99.90;;;;;;5075738;28;20034;-71
2021/11/22 01:07:53;;;;;;;3.83;1.05;;;5.10;99.90;;;;;;5075774;28;20028;-65
2021/11/22 01:10:20;;;;;;;6.72;2.05;;;5.10;99.90;;;;;;5094284;28;20047;-63
2021/11/22 01:12:46;;;;;;;3.60;0.52;;;5.10;99.90;;;;;;5075565;28;20028;-65
2021/11/22 01:15:14;;;;;;;13.25;1.50;;;5.10;99.90;;;;;;5092360;28;20040;-67
2021/11/22 01:17:42;;;;;;;3.28;0.98;;;5.00;99.90;;;;;;5074831;28;20016;-66
2021/11/22 01:20:10;;;;;;;3.58;0.93;;;5.10;99.90;;;;;;5093667;28;20138;-66
2021/11/22 01:22:37;;;;;;;3.80;0.82;;;5.10;99.90;;;;;;5093631;28;20028;-65
2021/11/22 01:25:03;;;;;;;4.72;1.00;;;5.10;99.90;;;;;;5092509;28;20387;-65
2021/11/22 01:27:29;;;;;;;2.47;0.63;;;5.10;99.90;;;;;;5092282;28;20335;-64
2021/11/22 01:29:55;;;;;;;5.30;0.77;;;5.10;99.90;;;;;;5092165;28;20074;-66
2021/11/22 01:32:21;;;;;;;3.47;0.70;;;5.00;99.90;;;;;;5093514;28;20070;-63
2021/11/22 01:34:46;;;;;;;6.45;1.45;;;5.00;99.90;;;;;;5093542;28;20020;-69
2021/11/22 01:37:12;;;;;;;7.55;2.08;;;5.00;99.90;;;;;;5093332;28;20032;-68
2021/11/22 01:39:37;;;;;;;10.82;2.05;;;4.90;99.90;;;;;;5075350;28;20115;-68
2021/11/22 01:42:03;;;;;;;4.25;1.15;;;4.90;99.90;;;;;;5093223;28;20040;-69
2021/11/22 01:44:30;;;;;;;13.02;1.52;;;4.90;99.90;;;;;;5093553;28;20092;-68
2021/11/22 01:46:55;;;;;;;5.30;0.80;;;4.80;99.90;;;;;;5093476;28;20048;-69
2021/11/22 01:49:21;;;;;;;6.43;0.93;;;4.80;99.90;;;;;;5074927;28;20498;-69
2021/11/22 01:51:48;;;;;;;2.97;0.73;;;4.80;99.90;;;;;;5075030;28;20073;-68
2021/11/22 01:54:16;;;;;;;3.50;1.27;;;4.80;99.90;;;;;;5091924;28;20031;-71
2021/11/22 01:56:43;;;;;;;8.00;0.73;;;4.80;99.90;;;;;;5092089;28;20475;-69
2021/11/22 01:59:08;;;;;;;1.85;1.05;;;4.80;99.90;;;;;;5075046;28;20016;-69
2021/11/22 02:01:34;;;;;;;4.15;0.65;;;4.80;99.90;;;;;;5091992;28;20047;-68
2021/11/22 02:04:00;;;;;;;4.18;1.17;;;4.80;99.90;;;;;;5092026;28;20024;-68
2021/11/22 02:06:25;;;;;;;2.33;0.60;;;4.80;99.90;;;;;;5092971;28;20093;-69
2021/11/22 02:08:51;;;;;;;18.30;1.38;;;4.80;99.90;;;;;;5091674;28;20013;-68
2021/11/22 02:11:17;;;;;;;3.80;0.60;;;4.80;99.90;;;;;;5092038;28;20086;-66
2021/11/22 02:13:43;;;;;;;4.03;0.57;;;4.90;99.90;;;;;;5074753;28;20020;-69
2021/11/22 02:16:09;;;;;;;4.63;1.10;;;4.90;99.90;;;;;;5091677;28;20107;-68
2021/11/22 02:18:34;;;;;;;6.03;0.47;;;4.90;99.90;;;;;;5074732;28;20459;-67
2021/11/22 02:21:00;;;;;;;8.15;0.85;;;5.00;99.90;;;;;;5092754;28;20038;-68
2021/11/22 02:23:26;;;;;;;1.58;0.55;;;5.00;99.90;;;;;;5091493;28;20024;-68
2021/11/22 02:25:51;;;;;;;6.03;1.00;;;5.00;99.90;;;;;;5074541;28;20039;-68
2021/11/22 02:28:18;;;;;;;4.18;0.68;;;5.00;99.90;;;;;;5095552;28;20103;-67
2021/11/22 02:30:46;;;;;;;2.25;0.65;;;5.00;99.90;;;;;;5095704;28;20032;-70
2021/11/22 02:33:18;;;;;;;11.40;1.02;;;5.00;99.90;;;;;;5095432;28;20135;-67
2021/11/22 02:35:52;;;;;;;6.03;1.10;;;5.10;99.90;;;;;;5095705;28;20039;-67
2021/11/22 02:38:19;;;;;;;5.22;1.20;;;5.10;99.90;;;;;;5078828;28;20463;-66
2021/11/22 02:40:45;;;;;;;1.85;0.75;;;5.10;99.90;;;;;;5095619;28;20027;-66
2021/11/22 02:43:11;;;;;;;2.65;0.70;;;5.10;99.90;;;;;;5095410;28;20024;-67
2021/11/22 02:45:37;;;;;;;3.40;0.82;;;5.00;99.90;;;;;;5095298;28;20044;-69
2021/11/22 02:48:03;;;;;;;4.55;1.05;;;4.90;99.90;;;;;;5096492;28;20052;-69
2021/11/22 02:50:28;;;;;;;8.32;0.85;;;4.90;99.90;;;;;;5078394;28;20043;-68
2021/11/22 02:52:54;;;;;;;3.00;0.93;;;4.80;99.90;;;;;;5095041;28;20035;-69
2021/11/22 02:55:20;;;;;;;4.50;0.73;;;4.80;99.90;;;;;;5095135;28;20505;-69
2021/11/22 02:57:46;;;;;;;5.10;0.88;;;4.80;99.90;;;;;;5095375;28;20363;-67
2021/11/22 03:00:15;;;;;;;4.95;1.02;;;4.80;99.90;;;;;;5095277;28;20475;-65
2021/11/22 03:02:42;;;;;;;4.03;0.77;;;4.80;99.90;;;;;;5095087;28;20467;-63
2021/11/22 03:05:08;;;;;;;4.28;1.10;;;4.80;99.90;;;;;;5094877;28;20028;-65
2021/11/22 03:07:34;;;;;;;3.72;0.88;;;4.80;99.90;;;;;;5096204;28;20386;-63
2021/11/22 03:09:59;;;;;;;5.53;0.80;;;4.70;99.90;;;;;;5094843;28;20028;-63
2021/11/22 03:12:25;;;;;;;4.45;0.80;;;4.70;99.90;;;;;;5078133;28;20039;-63
2021/11/22 03:14:50;;;;;;;5.63;1.08;;;4.70;99.90;;;;;;5095726;28;20095;-61
2021/11/22 03:17:17;;;;;;;3.13;1.15;;;4.70;99.90;;;;;;5094812;28;20043;-64
2021/11/22 03:19:43;;;;;;;2.88;0.65;;;4.70;99.90;;;;;;5094910;28;20023;-66
2021/11/22 03:22:09;;;;;;;4.38;0.77;;;4.70;99.90;;;;;;5094600;28;20036;-63
2021/11/22 03:24:34;;;;;;;5.30;0.70;;;4.60;99.90;;;;;;5094554;28;20048;-66
2021/11/22 03:27:01;;;;;;;9.35;0.77;;;4.60;99.90;;;;;;5095673;28;20437;-69
2021/11/22 03:29:27;;;;;;;8.85;1.77;;;4.60;99.90;;;;;;5095628;28;20016;-68
2021/11/22 03:31:53;;;;;;;10.10;0.80;;;4.50;99.90;;;;;;5095491;28;20032;-71
2021/11/22 03:34:19;;;;;;;5.75;0.80;;;4.50;99.90;;;;;;5094395;28;20032;-67
2021/11/22 03:36:45;;;;;;;3.00;0.60;;;4.50;99.90;;;;;;5094308;28;20028;-70
2021/11/22 03:39:23;;;;;;;2.72;0.70;;;4.50;99.90;;;;;;5093775;28;20027;-68
2021/11/22 03:41:50;;;;;;;3.50;0.73;;;4.50;99.90;;;;;;5078155;28;20368;-68
2021/11/22 03:44:16;;;;;;;4.28;0.85;;;4.50;99.90;;;;;;5094211;28;20027;-69
2021/11/22 03:46:50;;;;;;;4.65;0.80;;;4.50;99.90;;;;;;5077284;28;20016;-69
2021/11/22 03:49:16;;;;;;;5.13;1.85;;;4.50;99.90;;;;;;5077133;28;20474;-69
2021/11/22 03:51:42;;;;;;;5.38;0.75;;;4.60;99.90;;;;;;5094270;28;20032;-68
2021/11/22 03:54:10;;;;;;;4.55;0.55;;;4.60;99.90;;;;;;5094058;28;20490;-69
2021/11/22 03:56:36;;;;;;;5.13;0.88;;;4.60;99.90;;;;;;5093753;28;20044;-68
2021/11/22 03:59:03;;;;;;;4.38;1.00;;;4.60;99.90;;;;;;5093938;28;20027;-69
2021/11/22 04:01:28;;;;;;;2.55;0.50;;;4.50;99.90;;;;;;5095057;28;20032;-69
2021/11/22 04:03:54;;;;;;;3.00;0.68;;;4.60;99.90;;;;;;5076903;28;20111;-70
2021/11/22 04:06:20;;;;;;;4.88;0.82;;;4.60;99.90;;;;;;5093648;28;20081;-70
2021/11/22 04:08:45;;;;;;;6.28;1.02;;;4.50;99.90;;;;;;5093725;28;20071;-71
2021/11/22 04:11:11;;;;;;;7.70;1.25;;;4.60;99.90;;;;;;5093851;28;20021;-69
2021/11/22 04:13:37;;;;;;;9.80;1.55;;;4.60;99.90;;;;;;5095052;28;20012;-67
2021/11/22 04:16:03;;;;;;;1.77;1.00;;;4.60;99.90;;;;;;5093679;28;20088;-71
2021/11/22 04:18:30;;;;;;;10.57;1.13;;;4.70;99.90;;;;;;5076687;28;20028;-69
2021/11/22 04:20:56;;;;;;;2.53;1.13;;;4.70;99.90;;;;;;5076484;28;20024;-67
2021/11/22 04:23:21;;;;;;;2.50;0.88;;;4.70;99.90;;;;;;5076478;28;20145;-68
2021/11/22 04:25:47;;;;;;;6.10;0.80;;;4.70;99.90;;;;;;5093476;28;20028;-71
2021/11/22 04:28:13;;;;;;;1.50;0.68;;;4.70;99.90;;;;;;5093471;28;20028;-63
2021/11/22 04:30:40;;;;;;;1.52;0.57;;;4.70;99.90;;;;;;5094486;28;20038;-68
2021/11/22 04:33:06;;;;;;;9.63;1.23;;;4.70;99.90;;;;;;5093245;28;20154;-63
2021/11/22 04:35:32;;;;;;;2.88;1.40;;;4.60;99.90;;;;;;5076325;28;20032;-71
2021/11/22 04:37:58;;;;;;;3.13;0.50;;;4.60;99.90;;;;;;5076426;28;20028;-70
2021/11/22 04:40:24;;;;;;;5.80;0.90;;;4.60;99.90;;;;;;5095148;28;20417;-68
2021/11/22 04:42:49;;;;;;;6.00;1.17;;;4.60;99.90;;;;;;5093206;28;20027;-71
2021/11/22 04:45:23;;;;;;;5.70;1.02;;;4.50;99.90;;;;;;5076180;28;20115;-69
2021/11/22 04:47:50;;;;;;;2.08;0.80;;;4.50;99.90;;;;;;5094672;28;20028;-70
2021/11/22 04:50:17;;;;;;;5.55;0.77;;;4.40;99.90;;;;;;5092675;28;20024;-71
2021/11/22 04:52:44;;;;;;;3.35;1.17;;;4.50;99.90;;;;;;5075522;28;20024;-71
2021/11/22 04:55:11;;;;;;;3.33;0.82;;;4.50;99.90;;;;;;5093003;28;20016;-68
2021/11/22 04:57:37;;;;;;;5.28;1.08;;;4.50;99.90;;;;;;5094099;28;20062;-70
2021/11/22 05:00:05;;;;;;;6.05;1.17;;;4.50;99.90;;;;;;5094285;28;20055;-71
2021/11/22 05:02:30;;;;;;;7.18;1.25;;;4.50;99.90;;;;;;5092937;28;20024;-69
2021/11/22 05:04:56;;;;;;;4.45;1.10;;;4.50;99.90;;;;;;5075866;28;20028;-64
2021/11/22 05:07:21;;;;;;;5.15;1.17;;;4.50;99.90;;;;;;5092824;28;20391;-68
2021/11/22 05:09:47;;;;;;;7.50;1.38;;;4.40;99.90;;;;;;5092517;28;20064;-69
2021/11/22 05:12:24;;;;;;;1.92;0.80;;;4.50;99.90;;;;;;5123128;27;20212;-70
2021/11/22 05:14:50;;;;;;;4.88;0.90;;;4.50;99.90;;;;;;5072357;28;20067;-69
2021/11/22 05:17:16;;;;;;;3.20;1.05;;;4.40;99.90;;;;;;5072341;28;20028;-68
2021/11/22 05:19:41;;;;;;;2.70;0.98;;;4.40;99.90;;;;;;5090400;28;20033;-70
2021/11/22 05:22:07;;;;;;;7.40;0.93;;;4.40;99.90;;;;;;5071997;28;20124;-67
2021/11/22 05:24:33;;;;;;;5.47;1.13;;;4.40;99.90;;;;;;5072066;28;20048;-74
2021/11/22 05:27:02;;;;;;;3.97;0.90;;;4.40;99.90;;;;;;5089414;28;20032;-73
2021/11/22 05:29:27;;;;;;;3.75;0.75;;;4.40;99.90;;;;;;5072926;28;20421;-72
2021/11/22 05:31:53;;;;;;;4.20;0.95;;;4.30;99.90;;;;;;5071878;28;20044;-73
2021/11/22 05:34:19;;;;;;;4.07;0.65;;;4.30;99.90;;;;;;5088895;28;20025;-73
2021/11/22 05:36:45;;;;;;;3.72;0.77;;;4.40;99.90;;;;;;5088881;28;20028;-73
2021/11/22 05:39:11;;;;;;;6.63;1.27;;;4.50;99.90;;;;;;5071925;28;20464;-72
2021/11/22 05:41:37;;;;;;;4.03;1.00;;;4.30;99.90;;;;;;5055499;28;20043;-73
2021/11/22 05:44:03;;;;;;;2.72;0.70;;;4.20;99.90;;;;;;5071943;28;20023;-74
2021/11/22 05:46:28;;;;;;;7.20;1.10;;;4.20;99.90;;;;;;5088693;28;20407;-74
2021/11/22 05:48:54;;;;;;;3.58;1.00;;;4.20;99.90;;;;;;5088842;28;20071;-73
2021/11/22 05:51:20;;;;;;;5.03;1.60;;;4.40;99.90;;;;;;5089043;28;20395;-73
2021/11/22 05:53:48;;;;;;;4.78;1.00;;;4.20;99.90;;;;;;5073682;28;20107;-73
2021/11/22 05:56:17;;;;;;;4.38;0.95;;;4.20;99.90;;;;;;5091424;28;20016;-73
2021/11/22 05:58:43;;;;;;;2.88;1.00;;;4.20;99.90;;;;;;5071674;28;20081;-70
2021/11/22 06:01:09;;;;;;;5.57;1.15;;;4.10;99.90;;;;;;5088674;28;20020;-69
2021/11/22 06:03:35;;;;;;;7.68;1.20;;;4.10;99.90;;;;;;5089747;28;20037;-70
2021/11/22 06:06:02;;;;;;;4.90;1.00;;;4.10;99.90;;;;;;5088684;28;20024;-69
2021/11/22 06:08:28;;;;;;;7.75;1.10;;;4.20;99.90;;;;;;5071277;28;20414;-69
2021/11/22 06:10:54;;;;;;;6.10;1.42;;;4.20;99.90;;;;;;5071042;28;20388;-69
2021/11/22 06:13:20;;;;;;;1.88;0.90;;;4.20;99.90;;;;;;5088531;28;20046;-68
2021/11/22 06:15:47;;;;;;;2.38;0.90;;;4.10;99.90;;;;;;5089534;28;20031;-69
2021/11/22 06:18:13;;;;;;;3.97;1.00;;;4.10;99.90;;;;;;5088453;28;20360;-70
2021/11/22 06:20:39;;;;;;;5.28;0.90;;;4.00;99.90;;;;;;5088473;28;20424;-68
2021/11/22 06:23:05;;;;;;;5.65;1.00;;;4.00;99.90;;;;;;5078095;28;20095;-68
2021/11/22 06:25:31;;;;;;;3.80;0.80;;;4.00;99.90;;;;;;5074450;28;20025;-64
2021/11/22 06:27:56;;;;;;;5.22;1.20;;;4.00;99.90;;;;;;5074860;28;20487;-64
2021/11/22 06:30:22;;;;;;;1.90;0.93;;;4.00;99.90;;;;;;5075635;28;20021;-62
2021/11/22 06:32:48;;;;;;;9.15;2.50;;;4.00;99.90;;;;;;5074611;28;20029;-67
2021/11/22 06:35:17;;;;;;;8.25;1.25;;;4.00;99.90;;;;;;5074562;28;20036;-68
2021/11/22 06:37:42;;;;;;;5.30;1.30;;;4.00;99.90;;;;;;5058097;28;20043;-68
2021/11/22 06:40:09;;;;;;;1.73;0.88;;;4.00;99.90;;;;;;5057696;28;20045;-68
2021/11/22 06:42:34;;;;;;;7.63;1.40;;;4.00;99.90;;;;;;5041113;28;20021;-69
2021/11/22 06:45:00;;;;;;;14.13;1.50;;;4.00;99.90;;;;;;5074368;28;20039;-67
2021/11/22 06:47:26;;;;;;;11.88;2.53;;;3.90;99.90;;;;;;5057827;28;20032;-71
2021/11/22 06:49:53;;;;;;;14.00;1.48;;;3.90;99.90;;;;;;5057551;28;20028;-69
2021/11/22 06:52:21;;;;;;;7.40;2.33;;;3.90;99.90;;;;;;5074191;28;20033;-68
2021/11/22 06:54:51;;;;;;;3.92;1.60;;;3.80;99.90;;;;;;5075368;28;20028;-69
2021/11/22 06:57:17;;;;;;;7.93;1.20;;;3.80;99.90;;;;;;5057216;28;20025;-65
2021/11/22 06:59:43;;;;;;;8.35;1.90;;;3.90;99.90;;;;;;5073987;28;20077;-69
2021/11/22 07:02:14;;;;;;;10.15;3.10;;;3.80;99.90;;;;;;5073920;28;20383;-70
2021/11/22 07:04:40;;;;;;;6.75;1.52;;;3.90;99.90;;;;;;5074030;28;20483;-64
2021/11/22 07:07:06;;;;;;;5.28;1.20;;;3.80;99.90;;;;;;5073824;28;20020;-67
2021/11/22 07:09:32;;;;;;;4.40;1.40;;;3.90;99.90;;;;;;5073822;28;20028;-70
2021/11/22 07:11:58;;;;;;;6.20;1.35;;;3.80;99.90;;;;;;5056809;28;20114;-67
2021/11/22 07:14:24;;;;;;;6.70;2.65;;;3.80;99.90;;;;;;5074898;28;20028;-65
2021/11/22 07:16:51;;;;;;;8.82;2.00;;;3.80;99.90;;;;;;5073749;28;20029;-67
2021/11/22 07:19:17;;;;;;;4.15;1.33;;;3.80;99.90;;;;;;5073695;28;20017;-63
2021/11/22 07:21:43;;;;;;;5.78;1.58;;;3.80;99.90;;;;;;5056957;28;20430;-67
2021/11/22 07:24:08;;;;;;;11.80;1.48;;;3.90;99.90;;;;;;5057085;28;20037;-63
2021/11/22 07:26:34;;;;;;;2.63;1.27;;;3.90;99.90;;;;;;5075000;28;20024;-65
2021/11/22 07:29:00;;;;;;;7.07;2.10;;;4.00;99.90;;;;;;5073365;28;20039;-64
2021/11/22 07:31:25;;;;;;;5.60;1.55;;;4.00;99.90;;;;;;5056475;28;20028;-66
2021/11/22 07:33:51;;;;;;;3.53;1.55;;;4.00;99.90;;;;;;5055619;28;20075;-65
2021/11/22 07:36:17;;;;;;;11.25;2.13;;;4.10;99.90;;;;;;5056698;28;20035;-72
2021/11/22 07:38:42;;;;;;;8.02;2.00;;;4.10;99.90;;;;;;5073203;28;20064;-74
2021/11/22 07:41:08;;;;;;;8.15;2.05;;;4.10;99.90;;;;;;5073118;28;20041;-73
2021/11/22 07:43:34;;;;;;;2.15;1.52;;;4.10;99.90;;;;;;5056744;28;20024;-72
2021/11/22 07:45:59;;;;;;;7.50;1.40;;;4.10;99.90;;;;;;5074450;28;20028;-72
2021/11/22 07:48:25;;;;;;;9.98;1.45;;;4.20;99.90;;;;;;5073604;28;20029;-73
2021/11/22 07:50:51;;;;;;;7.15;1.73;;;4.20;99.90;;;;;;5056562;28;20549;-74
2021/11/22 07:53:17;;;;;;;4.03;1.13;;;4.20;99.90;;;;;;5074141;28;20556;-74
2021/11/22 07:55:44;;;;;;;5.30;1.30;;;4.30;99.90;;;;;;5072969;28;20468;-76
2021/11/22 07:58:10;;;;;;;4.15;1.15;;;4.40;99.90;;;;;;5074622;28;20032;-73
2021/11/22 08:00:36;;;;;;;9.80;2.13;;;4.50;99.90;;;;;;5074707;28;20552;-73
2021/11/22 08:03:01;;;;;;;9.10;2.40;;;4.70;99.90;;;;;;5073105;28;20027;-73
2021/11/22 08:05:30;;;;;;;7.18;3.20;;;5.20;99.90;;;;;;5072781;28;20032;-71
2021/11/22 08:07:56;;;;;;;6.50;2.80;;;5.70;99.90;;;;;;5073894;28;20024;-73
2021/11/22 08:12:49;;;;;;;6.93;1.83;;;7.10;99.90;;;;;;5072967;28;20048;-70
2021/11/22 08:15:15;;;;;;;14.52;2.75;;;7.80;99.90;;;;;;5073924;28;20496;-70
2021/11/22 08:17:43;;;;;;;10.00;2.03;;;8.30;99.90;;;;;;5072489;28;20491;-70
2021/11/22 08:20:14;;;;;;;4.00;1.42;;;8.70;99.90;;;;;;5072651;28;20025;-65
2021/11/22 08:22:40;;;;;;;8.15;1.42;;;8.90;99.90;;;;;;5055775;28;20027;-72
2021/11/22 08:25:07;;;;;;;7.70;1.35;;;9.30;99.90;;;;;;5055716;28;20115;-65
2021/11/22 08:27:33;;;;;;;4.85;1.25;;;9.80;99.90;;;;;;5072351;28;20032;-65
2021/11/22 08:30:08;;;;;;;2.53;0.88;;;10.30;99.90;;;;;;5055486;28;20372;-66
2021/11/22 08:32:34;;;;;;;5.93;1.02;;;10.90;99.90;;;;;;5055616;28;20479;-69
2021/11/22 08:35:00;;;;;;;4.07;1.23;;;11.30;99.90;;;;;;5073529;28;20379;-71
2021/11/22 08:37:26;;;;;;;8.18;1.92;;;11.80;99.90;;;;;;5055636;28;20055;-71
2021/11/22 08:39:52;;;;;;;3.40;1.35;;;12.20;99.90;;;;;;5072498;28;20060;-74
2021/11/22 08:42:18;;;;;;;5.03;1.73;;;12.70;99.90;;;;;;5055759;28;20379;-65
2021/11/22 08:44:44;;;;;;;9.88;2.17;;;13.10;99.90;;;;;;5072049;28;20075;-70
2021/11/22 08:47:10;;;;;;;5.95;2.30;;;13.40;99.90;;;;;;5038831;28;20048;-65
2021/11/22 08:49:36;;;;;;;6.78;1.58;;;13.80;99.90;;;;;;5038638;28;20025;-66
2021/11/22 08:52:03;;;;;;;4.00;0.90;;;14.00;99.90;;;;;;5055225;28;20058;-69
2021/11/22 08:54:29;;;;;;;5.82;0.90;;;14.10;99.90;;;;;;5071854;28;20070;-71
2021/11/22 08:56:55;;;;;;;6.70;1.40;;;14.20;99.90;;;;;;5055131;28;20032;-65
2021/11/22 08:59:21;;;;;;;3.88;0.80;;;14.30;99.80;;;;;;5055183;28;20063;-74
2021/11/22 09:01:47;;;;;;;4.72;1.70;;;14.40;99.80;;;;;;5071845;28;20081;-72
2021/11/22 09:04:13;;;;;;;4.82;1.15;;;14.60;99.50;;;;;;5055211;28;20178;-69
2021/11/22 09:06:38;;;;;;;6.18;1.25;;;14.90;99.00;;;;;;5055297;28;20064;-70
2021/11/22 09:09:06;;;;;;;4.07;1.10;;;15.20;98.40;;;;;;5072426;28;20029;-76
2021/11/22 09:11:33;;;;;;;4.53;1.40;;;15.30;98.50;;;;;;5073245;28;20530;-71
2021/11/22 09:13:58;;;;;;;4.65;1.63;;;15.40;98.10;;;;;;5055603;28;20171;-74
2021/11/22 09:16:28;;;;;;;5.20;1.50;;;15.20;97.80;;;;;;5071762;28;20514;-68
2021/11/22 09:18:59;;;;;;;4.18;1.70;;;14.40;98.60;;;;;;5073111;28;20029;-68
2021/11/22 09:21:28;;;;;;;7.68;2.30;;;14.00;99.80;;;;;;5073491;28;20025;-73
2021/11/22 09:23:55;;;;;;;3.78;2.15;;;14.00;99.40;;;;;;5055433;28;20120;-71
2021/11/22 09:26:21;;;;;;;7.70;2.03;;;14.20;99.00;;;;;;5055114;28;20032;-71
2021/11/22 09:28:47;;;;;;;7.97;1.50;;;14.40;98.70;;;;;;5055205;28;20103;-72
2021/11/22 09:31:13;;;;;;;7.30;2.25;;;14.30;98.40;;;;;;5072021;28;20036;-73
2021/11/22 09:33:39;;;;;;;3.25;1.48;;;14.20;98.10;;;;;;5071842;28;20074;-71
2021/11/22 09:36:05;;;;;;;3.38;1.00;;;14.10;98.60;;;;;;5071958;28;20033;-73
2021/11/22 09:38:30;;;;;;;5.43;1.20;;;14.00;98.70;;;;;;5055465;28;20061;-72
2021/11/22 09:40:57;;;;;;;4.85;1.60;;;13.90;98.90;;;;;;5072139;28;20025;-71
2021/11/22 09:43:23;;;;;;;4.88;1.15;;;13.80;98.70;;;;;;5072429;28;20017;-74
2021/11/22 09:45:49;;;;;;;2.42;1.20;;;13.90;99.00;;;;;;5073086;28;20033;-72
2021/11/22 09:48:15;;;;;;;4.05;1.20;;;14.00;98.80;;;;;;5040892;28;20556;-71
2021/11/22 09:50:41;;;;;;;6.45;1.33;;;13.90;98.30;;;;;;5060074;28;20471;-71
2021/11/22 09:53:07;;;;;;;2.83;1.15;;;13.60;99.00;;;;;;5075081;28;20059;-73
2021/11/22 09:55:35;;;;;;;4.68;1.23;;;13.10;98.80;;;;;;5056639;28;20063;-74
2021/11/22 09:58:05;;;;;;;6.75;2.00;;;12.30;99.50;;;;;;5073809;28;20025;-74
2021/11/22 10:00:37;;;;;;;5.95;1.35;;;11.50;99.90;;;;;;5075481;28;20025;-70
2021/11/22 10:03:05;;;;;;;6.40;1.52;;;10.80;99.90;;;;;;5075682;28;20077;-73
2021/11/22 10:05:35;;;;;;;4.85;1.40;;;10.30;99.90;;;;;;5058793;28;20107;-72
2021/11/22 10:08:10;;;;;;;5.65;1.63;;;9.90;99.90;;;;;;5058815;28;20024;-64
2021/11/22 10:10:43;;;;;;;8.00;2.00;;;9.70;99.90;;;;;;5076302;28;20143;-69
2021/11/22 10:13:33;;;;;;;2.88;1.27;;;9.50;99.90;;;;;;5076200;28;20245;-63
2021/11/22 10:16:11;;;;;;;4.00;1.13;;;9.30;99.90;;;;;;5075032;28;20056;-72
2021/11/22 10:18:46;;;;;;;3.85;1.17;;;9.10;99.90;;;;;;5074786;28;20025;-63
2021/11/22 10:21:15;;;;;;;2.75;1.45;;;9.10;99.90;;;;;;5075843;28;20024;-64
2021/11/22 10:23:43;;;;;;;5.70;1.23;;;8.80;99.90;;;;;;5074728;28;20031;-66
2021/11/22 10:26:11;;;;;;;3.17;1.10;;;8.80;99.90;;;;;;5057971;28;20368;-71
2021/11/22 10:28:48;;;;;;;3.85;0.80;;;8.70;99.90;;;;;;5074394;28;20044;-62
2021/11/22 10:31:17;;;;;;;6.63;1.20;;;8.60;99.90;;;;;;5057484;28;20036;-63
2021/11/22 10:33:45;;;;;;;5.00;1.10;;;8.60;99.90;;;;;;5074490;28;20017;-63
2021/11/22 10:36:13;;;;;;;3.58;1.05;;;8.60;99.90;;;;;;5074345;28;20024;-69
2021/11/22 10:38:41;;;;;;;3.33;1.33;;;8.70;99.90;;;;;;5074555;28;20098;-68
2021/11/22 10:41:07;;;;;;;7.18;1.58;;;8.80;99.90;;;;;;5076191;28;20031;-67
2021/11/22 10:43:49;;;;;;;4.47;0.90;;;8.80;99.90;;;;;;5075372;28;20387;-65
2021/11/22 10:46:15;;;;;;;2.60;1.23;;;8.80;99.90;;;;;;5074354;28;20483;-70
2021/11/22 10:48:46;;;;;;;7.50;1.95;;;8.80;99.90;;;;;;5074355;28;20032;-67
2021/11/22 10:51:21;;;;;;;9.23;1.92;;;8.80;99.90;;;;;;5074093;28;20480;-65
2021/11/22 10:53:55;;;;;;;3.90;1.35;;;8.80;99.90;;;;;;5057598;28;20375;-67
2021/11/22 10:56:27;;;;;;;5.18;0.77;;;8.70;99.90;;;;;;5057376;28;20102;-65
2021/11/22 10:59:06;;;;;;;3.85;1.05;;;8.80;99.90;;;;;;5075995;28;20368;-69
2021/11/22 11:01:41;;;;;;;2.95;0.90;;;8.80;99.90;;;;;;5074254;28;20020;-67
2021/11/22 11:04:08;;;;;;;;;;;8.80;99.90;;;;;;5075465;28;20022;-70
2021/11/22 11:06:36;;;;;;;4.07;1.23;;;8.80;99.90;;;;;;5074277;28;19904;-70
2021/11/22 11:09:04;;;;;;;4.93;1.27;;;8.70;99.90;;;;;;5058157;28;20529;-70
2021/11/22 11:11:30;;;;;;;1.83;0.70;;;8.90;99.90;;;;;;5074679;28;20052;-71
2021/11/22 11:13:55;;;;;;;5.07;0.70;;;8.90;99.90;;;;;;5076073;28;20117;-71
2021/11/22 11:16:21;;;;;;;3.38;0.65;;;8.80;99.90;;;;;;5074994;28;20074;-72
2021/11/22 11:19:02;;;;;;;4.78;1.08;;;8.80;99.90;;;;;;5073735;28;20031;-70
2021/11/22 11:21:31;;;;;;;2.75;0.77;;;8.90;99.90;;;;;;5075020;28;20027;-68
2021/11/22 11:23:58;;;;;;;3.63;0.77;;;8.90;99.90;;;;;;5073555;28;20021;-70
2021/11/22 11:26:26;;;;;;;1.58;0.38;;;9.00;99.90;;;;;;5056809;28;20024;-69
2021/11/22 11:28:53;;;;;;;2.35;0.60;;;9.00;99.90;;;;;;5073603;28;20017;-69
2021/11/22 11:31:19;;;;;;;2.83;0.68;;;9.00;99.90;;;;;;5056684;28;20039;-71
2021/11/22 11:33:45;;;;;;;2.00;0.95;;;9.00;99.90;;;;;;5074745;28;20021;-72
2021/11/22 11:36:31;;;;;;;5.28;0.70;;;9.00;99.90;;;;;;5074377;28;20548;-68
2021/11/22 11:39:24;;;;;;;0.93;0.50;;;9.10;99.90;;;;;;5074418;28;20107;-70
2021/11/22 11:42:02;;;;;;;4.50;0.80;;;9.10;99.90;;;;;;5054246;28;20032;-71
2021/11/22 11:44:44;;;;;;;1.83;0.60;;;9.10;99.90;;;;;;5072966;28;20016;-70
2021/11/22 11:47:33;;;;;;;2.17;0.77;;;9.10;99.90;;;;;;5073630;28;20043;-72
2021/11/22 11:50:20;;;;;;;4.32;0.70;;;9.10;99.90;;;;;;5073752;28;20055;-70
2021/11/22 11:52:58;;;;;;;0.73;0.30;;;9.10;99.90;;;;;;5073303;28;20055;-70
2021/11/22 11:55:25;;;;;;;3.42;0.52;;;9.20;99.90;;;;;;5072930;28;20024;-71
2021/11/22 11:58:26;;;;;;;4.43;0.85;;;9.20;99.90;;;;;;5073003;28;20032;-69
2021/11/22 12:00:54;;;;;;;2.58;1.20;;;9.20;99.90;;;;;;5073055;28;20028;-67
2021/11/22 12:03:20;;;;;;;0.98;0.40;;;9.30;99.90;;;;;;5073859;28;20058;-68
2021/11/22 12:05:51;;;;;;;2.08;0.35;;;9.30;99.90;;;;;;5074064;28;20036;-69
2021/11/22 12:08:29;;;;;;;3.85;0.65;;;9.30;99.90;;;;;;5073855;28;20363;-70
2021/11/22 12:10:57;;;;;;;3.42;0.60;;;9.30;99.90;;;;;;5073870;28;20052;-72
2021/11/22 12:13:23;;;;;;;4.05;0.45;;;9.30;99.90;;;;;;5056024;28;20033;-68
2021/11/22 12:15:54;;;;;;;5.93;1.30;;;9.30;99.90;;;;;;5039363;28;20066;-71
2021/11/22 12:18:34;;;;;;;3.17;0.43;;;9.40;99.90;;;;;;5072682;28;20021;-67
2021/11/22 12:21:07;;;;;;;6.93;0.70;;;9.40;99.90;;;;;;5072282;28;20509;-70
2021/11/22 12:23:45;;;;;;;5.18;0.80;;;9.40;99.90;;;;;;5072550;28;20066;-69
2021/11/22 12:26:13;;;;;;;4.05;0.40;;;9.40;99.90;;;;;;5072709;28;20028;-71
2021/11/22 12:28:39;;;;;;;1.92;0.55;;;9.40;99.90;;;;;;5072349;28;20430;-70
2021/11/22 12:31:12;;;;;;;1.55;0.40;;;9.40;99.90;;;;;;5073441;28;20044;-69
2021/11/22 12:33:44;;;;;;;2.25;0.77;;;9.40;99.90;;;;;;5073424;28;20081;-70
2021/11/22 12:36:12;;;;;;;5.07;0.65;;;9.50;99.90;;;;;;5072427;28;20048;-66
2021/11/22 12:38:41;;;;;;;1.02;0.57;;;9.50;99.90;;;;;;5073762;28;20021;-71
2021/11/22 12:41:19;;;;;;;2.75;0.70;;;9.50;99.90;;;;;;5073505;28;20025;-69
2021/11/22 12:44:00;;;;;;;1.80;1.08;;;9.50;99.90;;;;;;5073299;28;20475;-69
2021/11/22 12:46:52;;;;;;;5.47;0.95;;;9.60;99.90;;;;;;5055395;28;20029;-68
2021/11/22 12:49:41;;;;;;;6.10;0.60;;;9.70;99.90;;;;;;5073797;28;20031;-69
2021/11/22 12:52:28;;;;;;;1.02;0.57;;;9.80;99.90;;;;;;5055498;28;20124;-67
2021/11/22 12:55:10;;;;;;;4.07;0.52;;;9.80;99.90;;;;;;5072120;28;20497;-68
2021/11/22 12:57:38;;;;;;;3.22;0.80;;;9.90;99.90;;;;;;5073391;28;20071;-63
2021/11/22 13:00:09;;;;;;;2.75;0.60;;;10.00;99.90;;;;;;5071942;28;20027;-67
2021/11/22 13:03:08;;;;;;;2.67;1.20;;;10.00;99.90;;;;;;5073446;28;20020;-66